Herbert C Jackson — WL3972 — position and weather

sailwx.info

Track history (hours):
 
Tides and Currents Weather Stations Pressure Air Temp Water Temp Dewpoint Dewpoint Depression Visibility Wind Speed Wind Dir Waves Ship Positions

Herbert C Jackson

Owner: THE INTERLAKE STEAMSHIP COMPANY, Middleburg Heights, OH. More information available from US FCC via Universal Licensing System and Coast Guard Vessel Documentation Center.

Last reported at 2016-Sep-29 16:00 UTC. Time now 2016-Sep-29 17:04 UTC.
Position N 41°30' W 081°42'.

Length 239 m; draft 6.2 m.

Type: Cargo ship. MMSI: 366904930.

Wind from 060 at 20 knots

Barometer 1019.8 mb
Air temperature 18.5 ° C
Water temperature 19.4 ° C

Date/timePositionNaut miles runAvg speedWind from/ knotsBaromVisibWave heightAir tempDewpointWater temp
2016-Sep-29 16:00N 41°30' W 081°42'0 0.0 060 / 201019.8 18.5 19.4
2016-Sep-29 15:00N 41°30' W 081°42'0 0.0 060 / 161019.8 18.5 19.3
2016-Sep-29 14:00N 41°30' W 081°42'0 0.0 240 / 21019.8 18.4 19.3
2016-Sep-29 13:00N 41°30' W 081°42'1110.8 190 / 61019.1 17.1 19.2
2016-Sep-29 12:00N 41°36' W 081°54'1110.8 180 / 121018.1 16.9 19.8
2016-Sep-29 11:00N 41°42' W 082°06'1514.7 160 / 161016.8 17.2 19.5
2016-Sep-29 10:00N 41°48' W 082°24'1110.8 130 / 171015.7 17.4 19.1
2016-Sep-29 09:00N 41°54' W 082°36'9 8.9 120 / 191014.7 18.8 18.9
2016-Sep-29 08:00N 41°54' W 082°48'1313.4 120 / 361014.0 18.5 18.9
2016-Sep-29 07:00N 41°54' W 083°06'6 6.0 090 / 71015.1 16.0 17.7
2016-Sep-29 06:00N 42°00' W 083°06'1212.0 050 / 111015.4 15.7 16.8
2016-Sep-29 05:00N 42°12' W 083°06'7 7.5 050 / 121016.2 15.6 16.7
2016-Sep-29 04:00N 42°18' W 083°00'1110.7 040 / 101017.2 15.7 16.7
2016-Sep-29 03:00N 42°24' W 082°48'1110.7 160 / 111017.2 16.0 16.6
2016-Sep-29 02:00N 42°30' W 082°36'1312.8 050 / 161016.2 16.8 16.5
2016-Sep-29 01:00N 42°42' W 082°30'6 6.0 060 / 141016.7 16.8 16.2
2016-Sep-29 00:00N 42°48' W 082°30'1312.8 050 / 81016.0 19.1 16.1
2016-Sep-28 23:00N 43°00' W 082°24'1212.0 080 / 71016.0 19.9 16.0
2016-Sep-28 22:00N 43°12' W 082°24'1212.0 080 / 161015.4 20.2 17.1
2016-Sep-28 21:00N 43°24' W 082°24'1312.8 060 / 141015.4 20.1 17.6
2016-Sep-28 20:00N 43°36' W 082°30'6 6.0 080 / 141014.7 20.0 17.0
2016-Sep-28 19:00N 43°42' W 082°30'1212.0 020 / 31015.4 18.2 17.0
2016-Sep-28 18:00N 43°54' W 082°30'1312.8 060 / 171014.7 18.2 16.7
2016-Sep-28 17:00N 44°06' W 082°36'1312.7 070 / 241014.310.8 1.017.6 17.6
2016-Sep-28 16:00N 44°18' W 082°42'1312.7 060 / 231014.7 18.0 17.6
2016-Sep-28 15:00N 44°30' W 082°48'1312.7 050 / 201015.0 18.0 17.2
2016-Sep-28 14:00N 44°42' W 082°54'6 6.0 050 / 101015.0 17.3 17.2
2016-Sep-28 13:00N 44°48' W 082°54'1312.7 130 / 91014.0 16.5 16.8
2016-Sep-28 12:00N 45°00' W 083°00'1312.7 080 / 61013.7 14.1 13.8
2016-Sep-28 11:00N 45°12' W 083°06'1514.7 130 / 71012.7 14.2 15.4
2016-Sep-28 10:00N 45°24' W 083°18'7 7.3 100 / 121012.0 13.2 15.9
2016-Sep-28 09:00N 45°30' W 083°24'1514.6 150 / 91011.0 13.2 15.3
2016-Sep-28 08:00N 45°42' W 083°36'1010.3 110 / 111010.3 13.5 15.2
2016-Sep-28 07:00N 45°48' W 083°48'1312.7 110 / 101009.6 13.5 15.4
2016-Sep-28 06:00N 46°00' W 083°54'7 7.3 110 / 81009.3 12.7 15.9
2016-Sep-28 05:00N 46°06' W 084°00'1010.3 100 / 91008.6 12.6 15.8
2016-Sep-28 04:00N 46°12' W 084°12'1212.0 090 / 61008.3 11.5 15.8
2016-Sep-28 03:00N 46°24' W 084°12'7 7.3 120 / 61007.6 12.3 15.9
2016-Sep-28 02:00N 46°30' W 084°18'4 4.1 150 / 41006.6 11.6 15.5
2016-Sep-28 01:00N 46°30' W 084°24'0 0.0 160 / 31006.1 11.5 16.0
2016-Sep-28 00:00N 46°30' W 084°24'8 8.3 150 / 41005.1 11.5 15.2
2016-Sep-27 23:00N 46°30' W 084°36'1514.6 170 / 61003.7 12.0 15.9
2016-Sep-27 22:00N 46°42' W 084°48'1010.2 210 / 131002.4 12.3 15.8
2016-Sep-27 21:00N 46°48' W 085°00'1010.2 200 / 121001.4 11.9 14.9
2016-Sep-27 20:00N 46°54' W 085°12'1413.7 200 / 22999.7 12.2 14.6
2016-Sep-27 19:00N 47°00' W 085°30'7111.8 230 / 10999.3 12.4 14.2
2016-Sep-27 13:00N 47°36' W 087°00'1312.7 290 / 24996.6 11.3 14.6
2016-Sep-27 12:00N 47°48' W 086°54'5410.8 300 / 19995.9 11.6 14.3
2016-Sep-27 07:00N 48°42' W 086°48'1211.9 310 / 9994.6 12.0 14.8
2016-Sep-27 06:00N 48°42' W 087°06'1211.9 320 / 13994.2 11.6 15.2
2016-Sep-27 05:00N 48°42' W 087°24'1211.9 290 / 15994.9 12.3 15.2
2016-Sep-27 04:00N 48°42' W 087°42'10 9.9 300 / 18995.3 12.4 15.5
2016-Sep-27 03:00N 48°36' W 087°54'1010.0 300 / 21995.310.8 1.512.5 15.7
2016-Sep-27 02:00N 48°30' W 088°06'1313.4 280 / 23995.9 12.5 15.4
2016-Sep-27 01:00N 48°24' W 088°24'1010.0 280 / 25996.6 12.8 15.3
2016-Sep-27 00:00N 48°18' W 088°36'1010.0 280 / 31997.3 13.1 15.2
2016-Sep-26 23:00N 48°12' W 088°48'1313.4 270 / 23998.0 13.1 15.1
2016-Sep-26 22:00N 48°06' W 089°06'1010.0 250 / 20998.6 13.2 15.4
2016-Sep-26 21:00N 48°00' W 089°18'1313.5 260 / 20999.0 13.2 15.3
2016-Sep-26 20:00N 47°54' W 089°36'1010.0 260 / 21999.3 12.7 13.9
2016-Sep-26 19:00N 47°48' W 089°48'1413.5 280 / 26999.727.0 2.012.9 14.3
2016-Sep-26 18:00N 47°42' W 090°06'1010.1 280 / 241000.3 13.7 14.3
2016-Sep-26 17:00N 47°36' W 090°18'1413.5 260 / 211000.7 12.6 13.6
2016-Sep-26 16:00N 47°30' W 090°36'1010.1 270 / 261001.710.8 1.512.6 13.4
2016-Sep-26 15:00N 47°24' W 090°48'1413.6 260 / 251002.0 12.2 13.7
2016-Sep-26 14:00N 47°18' W 091°06'8 8.1 250 / 181002.7 12.2 13.8
2016-Sep-26 13:00N 47°18' W 091°18'0 0.0 260 / 101002.7 11.8 12.8
2016-Sep-26 12:00N 47°18' W 091°18'0 0.0 250 / 111002.4 11.6 12.9
2016-Sep-26 11:00N 47°18' W 091°18'0 0.0 270 / 101002.4 11.7 13.0
2016-Sep-26 10:00N 47°18' W 091°18'0 0.0 240 / 71002.4 11.7 13.1
2016-Sep-26 09:00N 47°18' W 091°18'0 0.0 230 / 71002.7 12.0 13.2
2016-Sep-26 08:00N 47°18' W 091°18'0 0.0 240 / 71003.4 12.1 13.3
2016-Sep-26 07:00N 47°18' W 091°18'0 0.0 200 / 91004.1 12.4 13.3
2016-Sep-26 06:00N 47°18' W 091°18'0 0.0 210 / 111005.1 12.7 13.2
2016-Sep-26 05:00N 47°18' W 091°18'0 0.0 230 / 91006.1 13.2 13.3
2016-Sep-26 04:00N 47°18' W 091°18'0 0.0 230 / 91006.8 13.7 13.3
2016-Sep-26 03:00N 47°18' W 091°18'0 0.0 220 / 91006.8 14.5 13.3
2016-Sep-26 02:00N 47°18' W 091°18'0 0.0 240 / 91007.1 15.2 13.3
2016-Sep-26 01:00N 47°18' W 091°18'0 0.0 200 / 91006.8 15.0 13.3
2016-Sep-26 00:00N 47°18' W 091°18'0 0.0 230 / 81007.5 15.7 13.1
2016-Sep-25 23:00N 47°18' W 091°18'6 6.0 210 / 151006.8 15.8 13.6
2016-Sep-25 22:00N 47°12' W 091°18'1514.5 250 / 181007.1 16.0 14.0
2016-Sep-25 21:00N 47°00' W 091°30'1010.2 230 / 241007.5 16.3 14.0
2016-Sep-25 20:00N 46°54' W 091°42'1413.7 230 / 211007.5 17.9 13.6
2016-Sep-25 19:00N 46°48' W 092°00'4 4.1 230 / 201007.5 18.9 13.2
2016-Sep-25 18:00N 46°48' W 092°06'3 4.2 200 / 81007.8 20.7 14.6
2016-Sep-25 17:22N 46°45' W 092°06'3 7.1
2016-Sep-25 17:00N 46°48' W 092°06'3 4.6 190 / 81008.5 19.8 14.8
2016-Sep-25 16:25N 46°45' W 092°06'3 6.3
2016-Sep-25 16:00N 46°48' W 092°06'3 4.6 350 / 21009.1 16.5 14.7
2016-Sep-25 15:25N 46°45' W 092°06'3 6.2
2016-Sep-25 15:00N 46°48' W 092°06'3 4.5 040 / 51009.5 16.2 14.8
2016-Sep-25 14:25N 46°45' W 092°06'3 6.2
2016-Sep-25 14:00N 46°48' W 092°06'0 0.0 030 / 111009.5 15.2 14.8
2016-Sep-25 13:00N 46°48' W 092°06'3 5.0 030 / 111010.5 15.2 14.7
2016-Sep-25 12:28N 46°45' W 092°06'3 5.6
2016-Sep-25 12:00N 46°48' W 092°06'3 5.0 030 / 61011.9 15.6 14.8
2016-Sep-25 11:28N 46°45' W 092°06'3 5.6
2016-Sep-25 11:00N 46°48' W 092°06'3 5.2 030 / 101012.2 15.0 14.6
2016-Sep-25 10:29N 46°45' W 092°06'3 5.3
2016-Sep-25 10:00N 46°48' W 092°06'3 5.5 040 / 91012.9 15.2 14.6
2016-Sep-25 09:31N 46°45' W 092°06'3 5.0
2016-Sep-25 09:00N 46°48' W 092°06'0 0.0 030 / 81013.5 15.1 14.6
2016-Sep-25 08:00N 46°48' W 092°06'3 5.5 020 / 71014.2 15.1 14.5
2016-Sep-25 07:31N 46°45' W 092°06'3 5.0
2016-Sep-25 07:00N 46°48' W 092°06'0 0.0 050 / 81015.2 15.9 14.5
2016-Sep-25 06:00N 46°48' W 092°06'0 0.0 050 / 61015.6 15.6 14.5
2016-Sep-25 05:00N 46°48' W 092°06'3 5.5 050 / 81016.3 15.3 14.5
2016-Sep-25 04:31N 46°45' W 092°06'3 5.1
2016-Sep-25 04:00N 46°48' W 092°06'0 0.0 050 / 111016.6 15.4 14.6
2016-Sep-25 03:00N 46°48' W 092°06'1212.3 050 / 181016.9 15.0 13.1
2016-Sep-25 02:00N 46°48' W 091°48'1010.2 050 / 171017.9 14.9 13.5
2016-Sep-25 01:00N 46°54' W 091°36'1010.2 050 / 201019.0 14.8 14.4
2016-Sep-25 00:00N 47°00' W 091°24'1010.1 050 / 131019.0 16.2 15.1
2016-Sep-24 23:00N 47°06' W 091°12'7 7.3 060 / 111019.0 16.4 15.1
2016-Sep-24 22:00N 47°12' W 091°06'0 0.0 060 / 131019.0 16.2 14.8
2016-Sep-24 21:00N 47°12' W 091°06'7 7.3 070 / 111019.3 15.6 14.0
2016-Sep-24 20:00N 47°18' W 091°00'6 6.0 090 / 161020.0 14.7 12.4
2016-Sep-24 19:00N 47°24' W 091°00'7 7.2 070 / 151020.0 14.4 13.4
2016-Sep-24 18:00N 47°18' W 091°06'7 7.3 050 / 101020.7 14.2 12.8
2016-Sep-24 17:00N 47°12' W 091°12'7 7.3 080 / 111021.3 14.7 13.2
2016-Sep-24 16:00N 47°06' W 091°18'1010.1 080 / 121021.0 15.9 14.9
2016-Sep-24 15:00N 47°00' W 091°30'711.3 070 / 101021.0 15.1 13.3
2016-Sep-24 14:23N 46°54' W 091°35'511.9
2016-Sep-24 14:00N 46°54' W 091°42'1010.2 070 / 131021.0 14.1 13.4
2016-Sep-24 13:00N 46°48' W 091°54'511.7 050 / 141021.0 15.1 13.6
2016-Sep-24 12:33N 46°48' W 092°01'3 5.6
2016-Sep-24 12:00N 46°48' W 092°06'0 0.0 050 / 101021.3 15.1 14.3
2016-Sep-24 11:00N 46°48' W 092°06'3 6.3 050 / 121021.3 15.0 15.1
2016-Sep-24 10:33N 46°45' W 092°06'3 4.8
2016-Sep-24 10:00N 46°48' W 092°06'3 6.2 050 / 161021.3 14.8 15.2
2016-Sep-24 09:33N 46°45' W 092°06'3 4.8
2016-Sep-24 09:00N 46°48' W 092°06'0 0.0 050 / 141021.7 14.7 15.4
2016-Sep-24 08:00N 46°48' W 092°06'0 0.0 050 / 121021.7 14.9 15.2
2016-Sep-24 07:00N 46°48' W 092°06'3 0.8 050 / 121021.7 14.9 15.0
2016-Sep-24 03:33N 46°45' W 092°06'0 0.0
2016-Sep-24 02:33N 46°45' W 092°06'0 0.0
2016-Sep-24 01:33N 46°45' W 092°06'0 0.0
2016-Sep-24 00:33N 46°45' W 092°06'3 1.1
2016-Sep-23 22:00N 46°48' W 092°06'3 1.1 040 / 211021.3 14.6 15.0
2016-Sep-23 19:32N 46°45' W 092°06'3 4.9
2016-Sep-23 19:00N 46°48' W 092°06'3 1.9 050 / 211022.7 14.6 14.7
2016-Sep-23 17:34N 46°45' W 092°06'0 0.0
2016-Sep-23 16:33N 46°45' W 092°06'3 4.8
2016-Sep-23 16:00N 46°48' W 092°06'3 6.0 050 / 181023.7 14.2 14.7
2016-Sep-23 15:33N 46°45' W 092°06'0 0.0
2016-Sep-23 13:33N 46°45' W 092°06'3 1.7
2016-Sep-23 12:00N 46°48' W 092°06'0 0.0 030 / 161023.4 14.0 14.7
2016-Sep-23 10:00N 46°48' W 092°06'3 6.1 040 / 141023.0 14.2 14.7
2016-Sep-23 09:33N 46°45' W 092°06'3 4.9
2016-Sep-23 09:00N 46°48' W 092°06'0 0.0 040 / 111022.7 13.9 14.7
2016-Sep-23 08:00N 46°48' W 092°06'0 0.0 040 / 111022.4 14.1 14.8
2016-Sep-23 07:00N 46°48' W 092°06'3 6.3 030 / 121022.0 14.2 14.4
2016-Sep-23 06:34N 46°45' W 092°06'3 4.8
2016-Sep-23 06:00N 46°48' W 092°06'0 0.0 030 / 121021.0 14.3 14.7
2016-Sep-23 05:00N 46°48' W 092°06'3 6.3 020 / 111021.3 14.3 14.7
2016-Sep-23 04:34N 46°45' W 092°06'3 4.8
2016-Sep-23 04:00N 46°48' W 092°06'3 6.1 020 / 71021.7 14.6 14.8
2016-Sep-23 03:33N 46°45' W 092°06'3 4.9
2016-Sep-23 03:00N 46°48' W 092°06'3 6.2 020 / 81021.7 14.6 14.7
2016-Sep-23 02:33N 46°45' W 092°06'3 4.8
2016-Sep-23 02:00N 46°48' W 092°06'3 6.2 030 / 101021.0 14.9 14.4
2016-Sep-23 01:33N 46°45' W 092°06'3 4.8
2016-Sep-23 01:00N 46°48' W 092°06'3 6.2 020 / 111021.0 14.9 14.5
2016-Sep-23 00:33N 46°45' W 092°06'3 4.8
2016-Sep-23 00:00N 46°48' W 092°06'3 6.2 020 / 101021.0 14.8 14.3
2016-Sep-22 23:33N 46°45' W 092°06'3 4.8
2016-Sep-22 23:00N 46°48' W 092°06'0 0.0 020 / 71021.0 15.1 14.4
2016-Sep-22 22:00N 46°48' W 092°06'0 0.0 040 / 61020.3 14.9 14.7
2016-Sep-22 21:00N 46°48' W 092°06'3 6.2 020 / 71020.0 14.8 14.9
2016-Sep-22 20:33N 46°45' W 092°06'3 4.8
2016-Sep-22 20:00N 46°48' W 092°06'0 0.0 080 / 121019.6 15.4 15.0
2016-Sep-22 19:00N 46°48' W 092°06'0 0.0 060 / 91020.0 15.2 14.9
2016-Sep-22 18:00N 46°48' W 092°06'0 0.0 040 / 71020.3 14.4 14.3
2016-Sep-22 17:00N 46°48' W 092°06'0 0.0 040 / 101020.3 13.9 14.4
2016-Sep-22 16:00N 46°48' W 092°06'0 0.0 040 / 81020.3 12.7 13.5
2016-Sep-22 15:00N 46°48' W 092°06'0 0.0 020 / 111020.0 12.5 14.4
2016-Sep-22 14:00N 46°48' W 092°06'3 1.7 040 / 131019.6 13.7 14.6
2016-Sep-22 12:31N 46°45' W 092°06'3 4.8
2016-Sep-22 12:00N 46°48' W 092°06'6 6.0 030 / 121019.0 13.6 14.7
2016-Sep-22 11:00N 46°42' W 092°06'0 0.0 030 / 141018.6 13.8 15.8
2016-Sep-22 10:00N 46°42' W 092°06'0 0.0 040 / 201018.3 13.6 16.0
2016-Sep-22 09:00N 46°42' W 092°06'2 0.5 040 / 201017.9 14.3 16.0
2016-Sep-22 04:28N 46°44' W 092°05'0 0.0
2016-Sep-22 03:28N 46°44' W 092°05'2 1.5
2016-Sep-22 02:00N 46°42' W 092°06'0 0.0 040 / 121019.6 15.3 16.1
2016-Sep-22 01:00N 46°42' W 092°06'2 4.8 040 / 141018.3 15.1 16.2
2016-Sep-22 00:31N 46°44' W 092°05'2 4.2
2016-Sep-22 00:00N 46°42' W 092°06'2 4.3 040 / 161020.3 14.7 16.1
2016-Sep-21 23:28N 46°44' W 092°05'2 4.6
2016-Sep-21 23:00N 46°42' W 092°06'2 4.8 030 / 231019.0 15.9 16.1
2016-Sep-21 22:31N 46°44' W 092°05'2 4.2
2016-Sep-21 22:00N 46°42' W 092°06'0 0.0 040 / 141019.3 15.7 16.3
2016-Sep-21 20:00N 46°42' W 092°06'2 4.8 030 / 221018.3 16.7 16.1
2016-Sep-21 19:31N 46°44' W 092°05'2 4.2
2016-Sep-21 19:00N 46°42' W 092°06'0 0.0 050 / 141019.6 16.7 16.2
2016-Sep-21 18:00N 46°42' W 092°06'0 0.0 040 / 161020.0 16.7 16.4
2016-Sep-21 17:00N 46°42' W 092°06'2 3.9 040 / 121021.7 16.1 16.4
2016-Sep-21 16:25N 46°44' W 092°05'2 5.2
2016-Sep-21 16:00N 46°42' W 092°06'0 0.0 040 / 151021.7 16.3 16.8
2016-Sep-21 15:00N 46°42' W 092°06'0 0.0 030 / 111022.4 16.7 16.8
2016-Sep-21 14:00N 46°42' W 092°06'0 0.0 040 / 121021.7 15.6 16.5
2016-Sep-21 13:00N 46°42' W 092°06'0 0.0 010 / 91021.0 15.4 16.6
2016-Sep-21 12:00N 46°42' W 092°06'0 0.0 030 / 101019.6 15.1 16.5
2016-Sep-21 11:00N 46°42' W 092°06'0 0.0 020 / 81020.0 15.1 16.6
2016-Sep-21 10:00N 46°42' W 092°06'2 3.9 030 / 81020.0 15.3 16.8
2016-Sep-21 09:25N 46°44' W 092°05'2 5.2
2016-Sep-21 09:00N 46°42' W 092°06'2 4.7 050 / 61019.3 16.2 16.8
2016-Sep-21 08:31N 46°44' W 092°05'2 4.2
2016-Sep-21 08:00N 46°42' W 092°06'0 0.0 050 / 51019.3 16.6 16.6
2016-Sep-21 07:00N 46°42' W 092°06'0 0.0 090 / 41019.0 16.2 16.6
2016-Sep-21 06:00N 46°42' W 092°06'0 0.0 020 / 61019.0 16.3 16.8
2016-Sep-21 05:00N 46°42' W 092°06'0 0.0 350 / 21019.010.8 16.714.017.0
2016-Sep-21 04:00N 46°42' W 092°06'2 2.6 220 / 31019.3 16.7 16.9
2016-Sep-21 03:07N 46°44' W 092°05'217.1
2016-Sep-21 03:00N 46°42' W 092°06'2 3.6 260 / 21019.3 17.2 16.9
2016-Sep-21 02:22N 46°44' W 092°05'2 5.8
2016-Sep-21 02:00N 46°42' W 092°06'0 0.0 190 / 21019.0 17.5 16.8
2016-Sep-21 01:00N 46°42' W 092°06'0 0.0 200 / 21019.0 18.0 16.8
2016-Sep-21 00:00N 46°42' W 092°06'0 0.0 270 / 21018.3 18.5 16.8
2016-Sep-20 23:00N 46°42' W 092°06'0 0.0 190 / 31017.9 18.9 17.0
2016-Sep-20 22:00N 46°42' W 092°06'0 0.0 220 / 31018.3 19.2 17.2
2016-Sep-20 21:00N 46°42' W 092°06'0 0.0 220 / 51017.9 19.3 17.3
2016-Sep-20 20:00N 46°42' W 092°06'0 0.0 200 / 31018.3 19.0 16.9
2016-Sep-20 19:00N 46°42' W 092°06'0 0.0 220 / 61019.0 18.6 16.9
2016-Sep-20 18:00N 46°42' W 092°06'2 4.7 210 / 101018.6 18.7 16.9
2016-Sep-20 17:31N 46°44' W 092°05'2 4.2
2016-Sep-20 17:00N 46°42' W 092°06'0 0.0 200 / 81018.6 18.5 16.9
2016-Sep-20 16:00N 46°42' W 092°06'0 0.0 210 / 81018.6 18.5 16.9
2016-Sep-20 15:00N 46°42' W 092°06'2 4.7 220 / 71018.6 16.2 17.0
2016-Sep-20 14:31N 46°44' W 092°05'2 4.2
2016-Sep-20 14:00N 46°42' W 092°06'2 4.7 210 / 81017.9 13.4 17.3
2016-Sep-20 13:31N 46°44' W 092°05'2 4.2
2016-Sep-20 13:00N 46°42' W 092°06'0 0.0 210 / 91017.9 12.3 17.0
2016-Sep-20 12:00N 46°42' W 092°06'0 0.0 210 / 81017.9 11.5 17.2
2016-Sep-20 11:00N 46°42' W 092°06'2 3.9 220 / 51017.6 11.0 17.5
2016-Sep-20 10:25N 46°44' W 092°05'2 5.2
2016-Sep-20 10:00N 46°42' W 092°06'0 0.0 220 / 71017.3 11.4 17.5
2016-Sep-20 09:00N 46°42' W 092°06'2 3.6 200 / 51017.3 11.2 17.5
2016-Sep-20 08:22N 46°44' W 092°05'2 5.9
2016-Sep-20 08:00N 46°42' W 092°06'2 3.9 210 / 61016.6 12.7 17.6
2016-Sep-20 07:25N 46°44' W 092°05'2 5.2
2016-Sep-20 07:00N 46°42' W 092°06'0 0.0 210 / 71016.6 13.2 17.5
2016-Sep-20 06:00N 46°42' W 092°06'0 0.0 210 / 61016.3 13.4 17.5
2016-Sep-20 05:00N 46°42' W 092°06'0 0.0 230 / 41015.9 15.1 17.6
2016-Sep-20 04:00N 46°42' W 092°06'0 0.0 230 / 51015.2 15.7 17.6
2016-Sep-20 03:00N 46°42' W 092°06'2 4.7 220 / 71014.6 15.9 17.6
2016-Sep-20 02:31N 46°44' W 092°05'2 4.2
2016-Sep-20 02:00N 46°42' W 092°06'0 0.0 200 / 61013.9 17.2 17.3
2016-Sep-20 01:00N 46°42' W 092°06'0 0.0 210 / 51013.5 19.7 17.7
2016-Sep-20 00:00N 46°42' W 092°06'2 3.3 250 / 81012.9 21.6 17.7
2016-Sep-19 23:19N 46°44' W 092°05'2 6.8
2016-Sep-19 23:00N 46°42' W 092°06'0 0.0 250 / 141011.9 23.5 17.5
2016-Sep-19 22:00N 46°42' W 092°06'0 0.0 260 / 181011.5 24.1 17.5
2016-Sep-19 21:00N 46°42' W 092°06'0 0.0 260 / 141011.2 24.2 17.5
2016-Sep-19 20:00N 46°42' W 092°06'2 3.9 260 / 161010.5 24.0 17.2
2016-Sep-19 19:25N 46°44' W 092°05'2 5.2
2016-Sep-19 19:00N 46°42' W 092°06'2 3.9 270 / 221010.8 23.4 17.2
2016-Sep-19 18:25N 46°44' W 092°05'2 5.2
2016-Sep-19 18:00N 46°42' W 092°06'0 0.0 240 / 141010.8 23.0 17.1
2016-Sep-19 17:00N 46°42' W 092°06'2 4.3 260 / 131011.2 21.6 16.9
2016-Sep-19 16:28N 46°44' W 092°05'2 4.7
2016-Sep-19 16:00N 46°42' W 092°06'   220 / 81011.2 19.4 16.9
Track history (hours):
 
Tides and Currents Weather Stations Pressure Air Temp Water Temp Dewpoint Dewpoint Depression Visibility Wind Speed Wind Dir Waves Ship Positions

Herbert C Jackson

Owner: THE INTERLAKE STEAMSHIP COMPANY, Middleburg Heights, OH. More information available from US FCC via Universal Licensing System and Coast Guard Vessel Documentation Center.

Last reported at 2016-Sep-29 16:00 UTC. Time now 2016-Sep-29 17:04 UTC.
Position N 41°30' W 081°42'.

Length 239 m; draft 6.2 m.

Type: Cargo ship. MMSI: 366904930.

Wind from 060 at 20 knots

Barometer 1019.8 mb
Air temperature 18.5 ° C
Water temperature 19.4 ° C

Date/timePositionNaut miles runAvg speedWind from/ knotsBaromVisibWave heightAir tempDewpointWater temp
2016-Sep-29 16:00N 41°30' W 081°42'0 0.0 060 / 201019.8 18.5 19.4
2016-Sep-29 15:00N 41°30' W 081°42'0 0.0 060 / 161019.8 18.5 19.3
2016-Sep-29 14:00N 41°30' W 081°42'0 0.0 240 / 21019.8 18.4 19.3
2016-Sep-29 13:00N 41°30' W 081°42'1110.8 190 / 61019.1 17.1 19.2
2016-Sep-29 12:00N 41°36' W 081°54'1110.8 180 / 121018.1 16.9 19.8
2016-Sep-29 11:00N 41°42' W 082°06'1514.7 160 / 161016.8 17.2 19.5
2016-Sep-29 10:00N 41°48' W 082°24'1110.8 130 / 171015.7 17.4 19.1
2016-Sep-29 09:00N 41°54' W 082°36'9 8.9 120 / 191014.7 18.8 18.9
2016-Sep-29 08:00N 41°54' W 082°48'1313.4 120 / 361014.0 18.5 18.9
2016-Sep-29 07:00N 41°54' W 083°06'6 6.0 090 / 71015.1 16.0 17.7
2016-Sep-29 06:00N 42°00' W 083°06'1212.0 050 / 111015.4 15.7 16.8
2016-Sep-29 05:00N 42°12' W 083°06'7 7.5 050 / 121016.2 15.6 16.7
2016-Sep-29 04:00N 42°18' W 083°00'1110.7 040 / 101017.2 15.7 16.7
2016-Sep-29 03:00N 42°24' W 082°48'1110.7 160 / 111017.2 16.0 16.6
2016-Sep-29 02:00N 42°30' W 082°36'1312.8 050 / 161016.2 16.8 16.5
2016-Sep-29 01:00N 42°42' W 082°30'6 6.0 060 / 141016.7 16.8 16.2
2016-Sep-29 00:00N 42°48' W 082°30'1312.8 050 / 81016.0 19.1 16.1
2016-Sep-28 23:00N 43°00' W 082°24'1212.0 080 / 71016.0 19.9 16.0
2016-Sep-28 22:00N 43°12' W 082°24'1212.0 080 / 161015.4 20.2 17.1
2016-Sep-28 21:00N 43°24' W 082°24'1312.8 060 / 141015.4 20.1 17.6
2016-Sep-28 20:00N 43°36' W 082°30'6 6.0 080 / 141014.7 20.0 17.0
2016-Sep-28 19:00N 43°42' W 082°30'1212.0 020 / 31015.4 18.2 17.0
2016-Sep-28 18:00N 43°54' W 082°30'1312.8 060 / 171014.7 18.2 16.7
2016-Sep-28 17:00N 44°06' W 082°36'1312.7 070 / 241014.310.8 1.017.6 17.6
2016-Sep-28 16:00N 44°18' W 082°42'1312.7 060 / 231014.7 18.0 17.6
2016-Sep-28 15:00N 44°30' W 082°48'1312.7 050 / 201015.0 18.0 17.2
2016-Sep-28 14:00N 44°42' W 082°54'6 6.0 050 / 101015.0 17.3 17.2
2016-Sep-28 13:00N 44°48' W 082°54'1312.7 130 / 91014.0 16.5 16.8
2016-Sep-28 12:00N 45°00' W 083°00'1312.7 080 / 61013.7 14.1 13.8
2016-Sep-28 11:00N 45°12' W 083°06'1514.7 130 / 71012.7 14.2 15.4
2016-Sep-28 10:00N 45°24' W 083°18'7 7.3 100 / 121012.0 13.2 15.9
2016-Sep-28 09:00N 45°30' W 083°24'1514.6 150 / 91011.0 13.2 15.3
2016-Sep-28 08:00N 45°42' W 083°36'1010.3 110 / 111010.3 13.5 15.2
2016-Sep-28 07:00N 45°48' W 083°48'1312.7 110 / 101009.6 13.5 15.4
2016-Sep-28 06:00N 46°00' W 083°54'7 7.3 110 / 81009.3 12.7 15.9
2016-Sep-28 05:00N 46°06' W 084°00'1010.3 100 / 91008.6 12.6 15.8
2016-Sep-28 04:00N 46°12' W 084°12'1212.0 090 / 61008.3 11.5 15.8
2016-Sep-28 03:00N 46°24' W 084°12'7 7.3 120 / 61007.6 12.3 15.9
2016-Sep-28 02:00N 46°30' W 084°18'4 4.1 150 / 41006.6 11.6 15.5
2016-Sep-28 01:00N 46°30' W 084°24'0 0.0 160 / 31006.1 11.5 16.0
2016-Sep-28 00:00N 46°30' W 084°24'8 8.3 150 / 41005.1 11.5 15.2
2016-Sep-27 23:00N 46°30' W 084°36'1514.6 170 / 61003.7 12.0 15.9
2016-Sep-27 22:00N 46°42' W 084°48'1010.2 210 / 131002.4 12.3 15.8
2016-Sep-27 21:00N 46°48' W 085°00'1010.2 200 / 121001.4 11.9 14.9
2016-Sep-27 20:00N 46°54' W 085°12'1413.7 200 / 22999.7 12.2 14.6
2016-Sep-27 19:00N 47°00' W 085°30'7111.8 230 / 10999.3 12.4 14.2
2016-Sep-27 13:00N 47°36' W 087°00'1312.7 290 / 24996.6 11.3 14.6
2016-Sep-27 12:00N 47°48' W 086°54'5410.8 300 / 19995.9 11.6 14.3
2016-Sep-27 07:00N 48°42' W 086°48'1211.9 310 / 9994.6 12.0 14.8
2016-Sep-27 06:00N 48°42' W 087°06'1211.9 320 / 13994.2 11.6 15.2
2016-Sep-27 05:00N 48°42' W 087°24'1211.9 290 / 15994.9 12.3 15.2
2016-Sep-27 04:00N 48°42' W 087°42'10 9.9 300 / 18995.3 12.4 15.5
2016-Sep-27 03:00N 48°36' W 087°54'1010.0 300 / 21995.310.8 1.512.5 15.7
2016-Sep-27 02:00N 48°30' W 088°06'1313.4 280 / 23995.9 12.5 15.4
2016-Sep-27 01:00N 48°24' W 088°24'1010.0 280 / 25996.6 12.8 15.3
2016-Sep-27 00:00N 48°18' W 088°36'1010.0 280 / 31997.3 13.1 15.2
2016-Sep-26 23:00N 48°12' W 088°48'1313.4 270 / 23998.0 13.1 15.1
2016-Sep-26 22:00N 48°06' W 089°06'1010.0 250 / 20998.6 13.2 15.4
2016-Sep-26 21:00N 48°00' W 089°18'1313.5 260 / 20999.0 13.2 15.3
2016-Sep-26 20:00N 47°54' W 089°36'1010.0 260 / 21999.3 12.7 13.9
2016-Sep-26 19:00N 47°48' W 089°48'1413.5 280 / 26999.727.0 2.012.9 14.3
2016-Sep-26 18:00N 47°42' W 090°06'1010.1 280 / 241000.3 13.7 14.3
2016-Sep-26 17:00N 47°36' W 090°18'1413.5 260 / 211000.7 12.6 13.6
2016-Sep-26 16:00N 47°30' W 090°36'1010.1 270 / 261001.710.8 1.512.6 13.4
2016-Sep-26 15:00N 47°24' W 090°48'1413.6 260 / 251002.0 12.2 13.7
2016-Sep-26 14:00N 47°18' W 091°06'8 8.1 250 / 181002.7 12.2 13.8
2016-Sep-26 13:00N 47°18' W 091°18'0 0.0 260 / 101002.7 11.8 12.8
2016-Sep-26 12:00N 47°18' W 091°18'0 0.0 250 / 111002.4 11.6 12.9
2016-Sep-26 11:00N 47°18' W 091°18'0 0.0 270 / 101002.4 11.7 13.0
2016-Sep-26 10:00N 47°18' W 091°18'0 0.0 240 / 71002.4 11.7 13.1
2016-Sep-26 09:00N 47°18' W 091°18'0 0.0 230 / 71002.7 12.0 13.2
2016-Sep-26 08:00N 47°18' W 091°18'0 0.0 240 / 71003.4 12.1 13.3
2016-Sep-26 07:00N 47°18' W 091°18'0 0.0 200 / 91004.1 12.4 13.3
2016-Sep-26 06:00N 47°18' W 091°18'0 0.0 210 / 111005.1 12.7 13.2
2016-Sep-26 05:00N 47°18' W 091°18'0 0.0 230 / 91006.1 13.2 13.3
2016-Sep-26 04:00N 47°18' W 091°18'0 0.0 230 / 91006.8 13.7 13.3
2016-Sep-26 03:00N 47°18' W 091°18'0 0.0 220 / 91006.8 14.5 13.3
2016-Sep-26 02:00N 47°18' W 091°18'0 0.0 240 / 91007.1 15.2 13.3
2016-Sep-26 01:00N 47°18' W 091°18'0 0.0 200 / 91006.8 15.0 13.3
2016-Sep-26 00:00N 47°18' W 091°18'0 0.0 230 / 81007.5 15.7 13.1
2016-Sep-25 23:00N 47°18' W 091°18'6 6.0 210 / 151006.8 15.8 13.6
2016-Sep-25 22:00N 47°12' W 091°18'1514.5 250 / 181007.1 16.0 14.0
2016-Sep-25 21:00N 47°00' W 091°30'1010.2 230 / 241007.5 16.3 14.0
2016-Sep-25 20:00N 46°54' W 091°42'1413.7 230 / 211007.5 17.9 13.6
2016-Sep-25 19:00N 46°48' W 092°00'4 4.1 230 / 201007.5 18.9 13.2
2016-Sep-25 18:00N 46°48' W 092°06'3 4.2 200 / 81007.8 20.7 14.6
2016-Sep-25 17:22N 46°45' W 092°06'3 7.1
2016-Sep-25 17:00N 46°48' W 092°06'3 4.6 190 / 81008.5 19.8 14.8
2016-Sep-25 16:25N 46°45' W 092°06'3 6.3
2016-Sep-25 16:00N 46°48' W 092°06'3 4.6 350 / 21009.1 16.5 14.7
2016-Sep-25 15:25N 46°45' W 092°06'3 6.2
2016-Sep-25 15:00N 46°48' W 092°06'3 4.5 040 / 51009.5 16.2 14.8
2016-Sep-25 14:25N 46°45' W 092°06'3 6.2
2016-Sep-25 14:00N 46°48' W 092°06'0 0.0 030 / 111009.5 15.2 14.8
2016-Sep-25 13:00N 46°48' W 092°06'3 5.0 030 / 111010.5 15.2 14.7
2016-Sep-25 12:28N 46°45' W 092°06'3 5.6
2016-Sep-25 12:00N 46°48' W 092°06'3 5.0 030 / 61011.9 15.6 14.8
2016-Sep-25 11:28N 46°45' W 092°06'3 5.6
2016-Sep-25 11:00N 46°48' W 092°06'3 5.2 030 / 101012.2 15.0 14.6
2016-Sep-25 10:29N 46°45' W 092°06'3 5.3
2016-Sep-25 10:00N 46°48' W 092°06'3 5.5 040 / 91012.9 15.2 14.6
2016-Sep-25 09:31N 46°45' W 092°06'3 5.0
2016-Sep-25 09:00N 46°48' W 092°06'0 0.0 030 / 81013.5 15.1 14.6
2016-Sep-25 08:00N 46°48' W 092°06'3 5.5 020 / 71014.2 15.1 14.5
2016-Sep-25 07:31N 46°45' W 092°06'3 5.0
2016-Sep-25 07:00N 46°48' W 092°06'0 0.0 050 / 81015.2 15.9 14.5
2016-Sep-25 06:00N 46°48' W 092°06'0 0.0 050 / 61015.6 15.6 14.5
2016-Sep-25 05:00N 46°48' W 092°06'3 5.5 050 / 81016.3 15.3 14.5
2016-Sep-25 04:31N 46°45' W 092°06'3 5.1
2016-Sep-25 04:00N 46°48' W 092°06'0 0.0 050 / 111016.6 15.4 14.6
2016-Sep-25 03:00N 46°48' W 092°06'1212.3 050 / 181016.9 15.0 13.1
2016-Sep-25 02:00N 46°48' W 091°48'1010.2 050 / 171017.9 14.9 13.5
2016-Sep-25 01:00N 46°54' W 091°36'1010.2 050 / 201019.0 14.8 14.4
2016-Sep-25 00:00N 47°00' W 091°24'1010.1 050 / 131019.0 16.2 15.1
2016-Sep-24 23:00N 47°06' W 091°12'7 7.3 060 / 111019.0 16.4 15.1
2016-Sep-24 22:00N 47°12' W 091°06'0 0.0 060 / 131019.0 16.2 14.8
2016-Sep-24 21:00N 47°12' W 091°06'7 7.3 070 / 111019.3 15.6 14.0
2016-Sep-24 20:00N 47°18' W 091°00'6 6.0 090 / 161020.0 14.7 12.4
2016-Sep-24 19:00N 47°24' W 091°00'7 7.2 070 / 151020.0 14.4 13.4
2016-Sep-24 18:00N 47°18' W 091°06'7 7.3 050 / 101020.7 14.2 12.8
2016-Sep-24 17:00N 47°12' W 091°12'7 7.3 080 / 111021.3 14.7 13.2
2016-Sep-24 16:00N 47°06' W 091°18'1010.1 080 / 121021.0 15.9 14.9
2016-Sep-24 15:00N 47°00' W 091°30'711.3 070 / 101021.0 15.1 13.3
2016-Sep-24 14:23N 46°54' W 091°35'511.9
2016-Sep-24 14:00N 46°54' W 091°42'1010.2 070 / 131021.0 14.1 13.4
2016-Sep-24 13:00N 46°48' W 091°54'511.7 050 / 141021.0 15.1 13.6
2016-Sep-24 12:33N 46°48' W 092°01'3 5.6
2016-Sep-24 12:00N 46°48' W 092°06'0 0.0 050 / 101021.3 15.1 14.3
2016-Sep-24 11:00N 46°48' W 092°06'3 6.3 050 / 121021.3 15.0 15.1
2016-Sep-24 10:33N 46°45' W 092°06'3 4.8
2016-Sep-24 10:00N 46°48' W 092°06'3 6.2 050 / 161021.3 14.8 15.2
2016-Sep-24 09:33N 46°45' W 092°06'3 4.8
2016-Sep-24 09:00N 46°48' W 092°06'0 0.0 050 / 141021.7 14.7 15.4
2016-Sep-24 08:00N 46°48' W 092°06'0 0.0 050 / 121021.7 14.9 15.2
2016-Sep-24 07:00N 46°48' W 092°06'3 0.8 050 / 121021.7 14.9 15.0
2016-Sep-24 03:33N 46°45' W 092°06'0 0.0
2016-Sep-24 02:33N 46°45' W 092°06'0 0.0
2016-Sep-24 01:33N 46°45' W 092°06'0 0.0
2016-Sep-24 00:33N 46°45' W 092°06'3 1.1
2016-Sep-23 22:00N 46°48' W 092°06'3 1.1 040 / 211021.3 14.6 15.0
2016-Sep-23 19:32N 46°45' W 092°06'3 4.9
2016-Sep-23 19:00N 46°48' W 092°06'3 1.9 050 / 211022.7 14.6 14.7
2016-Sep-23 17:34N 46°45' W 092°06'0 0.0
2016-Sep-23 16:33N 46°45' W 092°06'3 4.8
2016-Sep-23 16:00N 46°48' W 092°06'3 6.0 050 / 181023.7 14.2 14.7
2016-Sep-23 15:33N 46°45' W 092°06'0 0.0
2016-Sep-23 13:33N 46°45' W 092°06'3 1.7
2016-Sep-23 12:00N 46°48' W 092°06'0 0.0 030 / 161023.4 14.0 14.7
2016-Sep-23 10:00N 46°48' W 092°06'3 6.1 040 / 141023.0 14.2 14.7
2016-Sep-23 09:33N 46°45' W 092°06'3 4.9
2016-Sep-23 09:00N 46°48' W 092°06'0 0.0 040 / 111022.7 13.9 14.7
2016-Sep-23 08:00N 46°48' W 092°06'0 0.0 040 / 111022.4 14.1 14.8
2016-Sep-23 07:00N 46°48' W 092°06'3 6.3 030 / 121022.0 14.2 14.4
2016-Sep-23 06:34N 46°45' W 092°06'3 4.8
2016-Sep-23 06:00N 46°48' W 092°06'0 0.0 030 / 121021.0 14.3 14.7
2016-Sep-23 05:00N 46°48' W 092°06'3 6.3 020 / 111021.3 14.3 14.7
2016-Sep-23 04:34N 46°45' W 092°06'3 4.8
2016-Sep-23 04:00N 46°48' W 092°06'3 6.1 020 / 71021.7 14.6 14.8
2016-Sep-23 03:33N 46°45' W 092°06'3 4.9
2016-Sep-23 03:00N 46°48' W 092°06'3 6.2 020 / 81021.7 14.6 14.7
2016-Sep-23 02:33N 46°45' W 092°06'3 4.8
2016-Sep-23 02:00N 46°48' W 092°06'3 6.2 030 / 101021.0 14.9 14.4
2016-Sep-23 01:33N 46°45' W 092°06'3 4.8
2016-Sep-23 01:00N 46°48' W 092°06'3 6.2 020 / 111021.0 14.9 14.5
2016-Sep-23 00:33N 46°45' W 092°06'3 4.8
2016-Sep-23 00:00N 46°48' W 092°06'3 6.2 020 / 101021.0 14.8 14.3
2016-Sep-22 23:33N 46°45' W 092°06'3 4.8
2016-Sep-22 23:00N 46°48' W 092°06'0 0.0 020 / 71021.0 15.1 14.4
2016-Sep-22 22:00N 46°48' W 092°06'0 0.0 040 / 61020.3 14.9 14.7
2016-Sep-22 21:00N 46°48' W 092°06'3 6.2 020 / 71020.0 14.8 14.9
2016-Sep-22 20:33N 46°45' W 092°06'3 4.8
2016-Sep-22 20:00N 46°48' W 092°06'0 0.0 080 / 121019.6 15.4 15.0
2016-Sep-22 19:00N 46°48' W 092°06'0 0.0 060 / 91020.0 15.2 14.9
2016-Sep-22 18:00N 46°48' W 092°06'0 0.0 040 / 71020.3 14.4 14.3
2016-Sep-22 17:00N 46°48' W 092°06'0 0.0 040 / 101020.3 13.9 14.4
2016-Sep-22 16:00N 46°48' W 092°06'0 0.0 040 / 81020.3 12.7 13.5
2016-Sep-22 15:00N 46°48' W 092°06'0 0.0 020 / 111020.0 12.5 14.4
2016-Sep-22 14:00N 46°48' W 092°06'3 1.7 040 / 131019.6 13.7 14.6
2016-Sep-22 12:31N 46°45' W 092°06'3 4.8
2016-Sep-22 12:00N 46°48' W 092°06'6 6.0 030 / 121019.0 13.6 14.7
2016-Sep-22 11:00N 46°42' W 092°06'0 0.0 030 / 141018.6 13.8 15.8
2016-Sep-22 10:00N 46°42' W 092°06'0 0.0 040 / 201018.3 13.6 16.0
2016-Sep-22 09:00N 46°42' W 092°06'2 0.5 040 / 201017.9 14.3 16.0
2016-Sep-22 04:28N 46°44' W 092°05'0 0.0
2016-Sep-22 03:28N 46°44' W 092°05'2 1.5
2016-Sep-22 02:00N 46°42' W 092°06'0 0.0 040 / 121019.6 15.3 16.1
2016-Sep-22 01:00N 46°42' W 092°06'2 4.8 040 / 141018.3 15.1 16.2
2016-Sep-22 00:31N 46°44' W 092°05'2 4.2
2016-Sep-22 00:00N 46°42' W 092°06'2 4.3 040 / 161020.3 14.7 16.1
2016-Sep-21 23:28N 46°44' W 092°05'2 4.6
2016-Sep-21 23:00N 46°42' W 092°06'2 4.8 030 / 231019.0 15.9 16.1
2016-Sep-21 22:31N 46°44' W 092°05'2 4.2
2016-Sep-21 22:00N 46°42' W 092°06'0 0.0 040 / 141019.3 15.7 16.3
2016-Sep-21 20:00N 46°42' W 092°06'2 4.8 030 / 221018.3 16.7 16.1
2016-Sep-21 19:31N 46°44' W 092°05'2 4.2
2016-Sep-21 19:00N 46°42' W 092°06'0 0.0 050 / 141019.6 16.7 16.2
2016-Sep-21 18:00N 46°42' W 092°06'0 0.0 040 / 161020.0 16.7 16.4
2016-Sep-21 17:00N 46°42' W 092°06'2 3.9 040 / 121021.7 16.1 16.4
2016-Sep-21 16:25N 46°44' W 092°05'2 5.2
2016-Sep-21 16:00N 46°42' W 092°06'0 0.0 040 / 151021.7 16.3 16.8
2016-Sep-21 15:00N 46°42' W 092°06'0 0.0 030 / 111022.4 16.7 16.8
2016-Sep-21 14:00N 46°42' W 092°06'0 0.0 040 / 121021.7 15.6 16.5
2016-Sep-21 13:00N 46°42' W 092°06'0 0.0 010 / 91021.0 15.4 16.6
2016-Sep-21 12:00N 46°42' W 092°06'0 0.0 030 / 101019.6 15.1 16.5
2016-Sep-21 11:00N 46°42' W 092°06'0 0.0 020 / 81020.0 15.1 16.6
2016-Sep-21 10:00N 46°42' W 092°06'2 3.9 030 / 81020.0 15.3 16.8
2016-Sep-21 09:25N 46°44' W 092°05'2 5.2
2016-Sep-21 09:00N 46°42' W 092°06'2 4.7 050 / 61019.3 16.2 16.8
2016-Sep-21 08:31N 46°44' W 092°05'2 4.2
2016-Sep-21 08:00N 46°42' W 092°06'0 0.0 050 / 51019.3 16.6 16.6
2016-Sep-21 07:00N 46°42' W 092°06'0 0.0 090 / 41019.0 16.2 16.6
2016-Sep-21 06:00N 46°42' W 092°06'0 0.0 020 / 61019.0 16.3 16.8
2016-Sep-21 05:00N 46°42' W 092°06'0 0.0 350 / 21019.010.8 16.714.017.0
2016-Sep-21 04:00N 46°42' W 092°06'2 2.6 220 / 31019.3 16.7 16.9
2016-Sep-21 03:07N 46°44' W 092°05'217.1
2016-Sep-21 03:00N 46°42' W 092°06'2 3.6 260 / 21019.3 17.2 16.9
2016-Sep-21 02:22N 46°44' W 092°05'2 5.8
2016-Sep-21 02:00N 46°42' W 092°06'0 0.0 190 / 21019.0 17.5 16.8
2016-Sep-21 01:00N 46°42' W 092°06'0 0.0 200 / 21019.0 18.0 16.8
2016-Sep-21 00:00N 46°42' W 092°06'0 0.0 270 / 21018.3 18.5 16.8
2016-Sep-20 23:00N 46°42' W 092°06'0 0.0 190 / 31017.9 18.9 17.0
2016-Sep-20 22:00N 46°42' W 092°06'0 0.0 220 / 31018.3 19.2 17.2
2016-Sep-20 21:00N 46°42' W 092°06'0 0.0 220 / 51017.9 19.3 17.3
2016-Sep-20 20:00N 46°42' W 092°06'0 0.0 200 / 31018.3 19.0 16.9
2016-Sep-20 19:00N 46°42' W 092°06'0 0.0 220 / 61019.0 18.6 16.9
2016-Sep-20 18:00N 46°42' W 092°06'2 4.7 210 / 101018.6 18.7 16.9
2016-Sep-20 17:31N 46°44' W 092°05'2 4.2
2016-Sep-20 17:00N 46°42' W 092°06'0 0.0 200 / 81018.6 18.5 16.9
2016-Sep-20 16:00N 46°42' W 092°06'0 0.0 210 / 81018.6 18.5 16.9
2016-Sep-20 15:00N 46°42' W 092°06'2 4.7 220 / 71018.6 16.2 17.0
2016-Sep-20 14:31N 46°44' W 092°05'2 4.2
2016-Sep-20 14:00N 46°42' W 092°06'2 4.7 210 / 81017.9 13.4 17.3
2016-Sep-20 13:31N 46°44' W 092°05'2 4.2
2016-Sep-20 13:00N 46°42' W 092°06'0 0.0 210 / 91017.9 12.3 17.0
2016-Sep-20 12:00N 46°42' W 092°06'0 0.0 210 / 81017.9 11.5 17.2
2016-Sep-20 11:00N 46°42' W 092°06'2 3.9 220 / 51017.6 11.0 17.5
2016-Sep-20 10:25N 46°44' W 092°05'2 5.2
2016-Sep-20 10:00N 46°42' W 092°06'0 0.0 220 / 71017.3 11.4 17.5
2016-Sep-20 09:00N 46°42' W 092°06'2 3.6 200 / 51017.3 11.2 17.5
2016-Sep-20 08:22N 46°44' W 092°05'2 5.9
2016-Sep-20 08:00N 46°42' W 092°06'2 3.9 210 / 61016.6 12.7 17.6
2016-Sep-20 07:25N 46°44' W 092°05'2 5.2
2016-Sep-20 07:00N 46°42' W 092°06'0 0.0 210 / 71016.6 13.2 17.5
2016-Sep-20 06:00N 46°42' W 092°06'0 0.0 210 / 61016.3 13.4 17.5
2016-Sep-20 05:00N 46°42' W 092°06'0 0.0 230 / 41015.9 15.1 17.6
2016-Sep-20 04:00N 46°42' W 092°06'0 0.0 230 / 51015.2 15.7 17.6
2016-Sep-20 03:00N 46°42' W 092°06'2 4.7 220 / 71014.6 15.9 17.6
2016-Sep-20 02:31N 46°44' W 092°05'2 4.2
2016-Sep-20 02:00N 46°42' W 092°06'0 0.0 200 / 61013.9 17.2 17.3
2016-Sep-20 01:00N 46°42' W 092°06'0 0.0 210 / 51013.5 19.7 17.7
2016-Sep-20 00:00N 46°42' W 092°06'2 3.3 250 / 81012.9 21.6 17.7
2016-Sep-19 23:19N 46°44' W 092°05'2 6.8
2016-Sep-19 23:00N 46°42' W 092°06'0 0.0 250 / 141011.9 23.5 17.5
2016-Sep-19 22:00N 46°42' W 092°06'0 0.0 260 / 181011.5 24.1 17.5
2016-Sep-19 21:00N 46°42' W 092°06'0 0.0 260 / 141011.2 24.2 17.5
2016-Sep-19 20:00N 46°42' W 092°06'2 3.9 260 / 161010.5 24.0 17.2
2016-Sep-19 19:25N 46°44' W 092°05'2 5.2
2016-Sep-19 19:00N 46°42' W 092°06'2 3.9 270 / 221010.8 23.4 17.2
2016-Sep-19 18:25N 46°44' W 092°05'2 5.2
2016-Sep-19 18:00N 46°42' W 092°06'0 0.0 240 / 141010.8 23.0 17.1
2016-Sep-19 17:00N 46°42' W 092°06'2 4.3 260 / 131011.2 21.6 16.9
2016-Sep-19 16:28N 46°44' W 092°05'2 4.7
2016-Sep-19 16:00N 46°42' W 092°06'   220 / 81011.2 19.4 16.9

Dump ship's entire track history